sensor_id;sensor_type;location;lat;lon;timestamp;P1;durP1;ratioP1;P2;durP2;ratioP2
66425;SDS011;53237;46.158;14.604;2022-07-04T00:02:19;3.13;;;2.80;;
66425;SDS011;53237;46.158;14.604;2022-07-04T00:04:45;2.85;;;2.65;;
66425;SDS011;53237;46.158;14.604;2022-07-04T00:07:11;2.75;;;2.45;;
66425;SDS011;53237;46.158;14.604;2022-07-04T00:09:37;3.63;;;2.83;;
66425;SDS011;53237;46.158;14.604;2022-07-04T00:12:05;4.07;;;2.70;;
66425;SDS011;53237;46.158;14.604;2022-07-04T00:14:31;3.35;;;3.05;;
66425;SDS011;53237;46.158;14.604;2022-07-04T00:16:57;3.10;;;2.90;;
66425;SDS011;53237;46.158;14.604;2022-07-04T00:19:23;3.15;;;2.67;;
66425;SDS011;53237;46.158;14.604;2022-07-04T00:21:49;4.78;;;2.75;;
66425;SDS011;53237;46.158;14.604;2022-07-04T00:24:15;3.20;;;2.90;;
66425;SDS011;53237;46.158;14.604;2022-07-04T00:26:41;3.10;;;2.80;;
66425;SDS011;53237;46.158;14.604;2022-07-04T00:29:07;3.55;;;3.25;;
66425;SDS011;53237;46.158;14.604;2022-07-04T00:31:33;3.35;;;2.75;;
66425;SDS011;53237;46.158;14.604;2022-07-04T00:33:59;3.25;;;2.95;;
66425;SDS011;53237;46.158;14.604;2022-07-04T00:36:25;3.83;;;2.97;;
66425;SDS011;53237;46.158;14.604;2022-07-04T00:38:51;6.10;;;3.00;;
66425;SDS011;53237;46.158;14.604;2022-07-04T00:41:17;3.15;;;2.85;;
66425;SDS011;53237;46.158;14.604;2022-07-04T00:43:43;3.53;;;2.85;;
66425;SDS011;53237;46.158;14.604;2022-07-04T00:46:09;3.15;;;2.85;;
66425;SDS011;53237;46.158;14.604;2022-07-04T00:48:35;3.42;;;3.13;;
66425;SDS011;53237;46.158;14.604;2022-07-04T00:51:01;3.25;;;2.83;;
66425;SDS011;53237;46.158;14.604;2022-07-04T00:53:27;3.45;;;3.00;;
66425;SDS011;53237;46.158;14.604;2022-07-04T00:55:53;4.25;;;2.80;;
66425;SDS011;53237;46.158;14.604;2022-07-04T00:58:20;3.45;;;2.80;;
66425;SDS011;53237;46.158;14.604;2022-07-04T01:00:47;2.78;;;2.40;;
66425;SDS011;53237;46.158;14.604;2022-07-04T01:03:13;3.85;;;2.90;;
66425;SDS011;53237;46.158;14.604;2022-07-04T01:05:39;3.92;;;2.92;;
66425;SDS011;53237;46.158;14.604;2022-07-04T01:08:05;3.67;;;2.80;;
66425;SDS011;53237;46.158;14.604;2022-07-04T01:10:31;3.08;;;2.75;;
66425;SDS011;53237;46.158;14.604;2022-07-04T01:12:57;3.65;;;3.05;;
66425;SDS011;53237;46.158;14.604;2022-07-04T01:15:23;4.25;;;2.90;;
66425;SDS011;53237;46.158;14.604;2022-07-04T01:17:50;3.20;;;2.90;;
66425;SDS011;53237;46.158;14.604;2022-07-04T01:20:16;3.28;;;2.97;;
66425;SDS011;53237;46.158;14.604;2022-07-04T01:22:42;3.63;;;2.83;;
66425;SDS011;53237;46.158;14.604;2022-07-04T01:25:09;3.40;;;2.60;;
66425;SDS011;53237;46.158;14.604;2022-07-04T01:27:35;2.85;;;2.60;;
66425;SDS011;53237;46.158;14.604;2022-07-04T01:30:01;3.00;;;2.80;;
66425;SDS011;53237;46.158;14.604;2022-07-04T01:32:27;3.42;;;2.92;;
66425;SDS011;53237;46.158;14.604;2022-07-04T01:34:53;3.15;;;2.75;;
66425;SDS011;53237;46.158;14.604;2022-07-04T01:37:19;2.97;;;2.78;;
66425;SDS011;53237;46.158;14.604;2022-07-04T01:39:45;2.80;;;2.60;;
66425;SDS011;53237;46.158;14.604;2022-07-04T01:42:11;2.88;;;2.67;;
66425;SDS011;53237;46.158;14.604;2022-07-04T01:44:37;3.13;;;2.83;;
66425;SDS011;53237;46.158;14.604;2022-07-04T01:47:03;3.72;;;2.70;;
66425;SDS011;53237;46.158;14.604;2022-07-04T01:49:30;3.25;;;2.95;;
66425;SDS011;53237;46.158;14.604;2022-07-04T01:51:56;2.90;;;2.70;;
66425;SDS011;53237;46.158;14.604;2022-07-04T01:54:22;3.35;;;3.10;;
66425;SDS011;53237;46.158;14.604;2022-07-04T01:56:50;2.97;;;2.78;;
66425;SDS011;53237;46.158;14.604;2022-07-04T01:59:16;3.42;;;3.13;;
66425;SDS011;53237;46.158;14.604;2022-07-04T02:01:42;3.33;;;2.83;;
66425;SDS011;53237;46.158;14.604;2022-07-04T02:04:08;3.30;;;3.00;;
66425;SDS011;53237;46.158;14.604;2022-07-04T02:06:34;5.32;;;3.05;;
66425;SDS011;53237;46.158;14.604;2022-07-04T02:09:00;3.03;;;2.72;;
66425;SDS011;53237;46.158;14.604;2022-07-04T02:11:42;3.20;;;2.85;;
66425;SDS011;53237;46.158;14.604;2022-07-04T02:14:28;3.78;;;2.80;;
66425;SDS011;53237;46.158;14.604;2022-07-04T02:16:54;3.33;;;2.95;;
66425;SDS011;53237;46.158;14.604;2022-07-04T02:19:20;3.47;;;3.17;;
66425;SDS011;53237;46.158;14.604;2022-07-04T02:21:46;3.60;;;2.85;;
66425;SDS011;53237;46.158;14.604;2022-07-04T02:24:12;3.95;;;3.15;;
66425;SDS011;53237;46.158;14.604;2022-07-04T02:26:38;3.65;;;2.67;;
66425;SDS011;53237;46.158;14.604;2022-07-04T02:29:04;4.45;;;2.78;;
66425;SDS011;53237;46.158;14.604;2022-07-04T02:31:30;3.40;;;2.90;;
66425;SDS011;53237;46.158;14.604;2022-07-04T02:33:56;4.15;;;3.10;;
66425;SDS011;53237;46.158;14.604;2022-07-04T02:36:22;5.57;;;3.92;;
66425;SDS011;53237;46.158;14.604;2022-07-04T02:38:48;3.70;;;3.30;;
66425;SDS011;53237;46.158;14.604;2022-07-04T02:41:14;3.53;;;3.22;;
66425;SDS011;53237;46.158;14.604;2022-07-04T02:43:40;3.53;;;2.97;;
66425;SDS011;53237;46.158;14.604;2022-07-04T02:46:06;3.45;;;2.70;;
66425;SDS011;53237;46.158;14.604;2022-07-04T02:48:32;3.40;;;3.10;;
66425;SDS011;53237;46.158;14.604;2022-07-04T02:50:58;3.22;;;2.65;;
66425;SDS011;53237;46.158;14.604;2022-07-04T02:53:24;4.38;;;2.90;;
66425;SDS011;53237;46.158;14.604;2022-07-04T02:55:50;2.97;;;2.70;;
66425;SDS011;53237;46.158;14.604;2022-07-04T02:58:16;3.92;;;3.15;;
66425;SDS011;53237;46.158;14.604;2022-07-04T03:00:42;2.80;;;2.60;;
66425;SDS011;53237;46.158;14.604;2022-07-04T03:03:08;4.20;;;2.80;;
66425;SDS011;53237;46.158;14.604;2022-07-04T03:05:34;2.80;;;2.60;;
66425;SDS011;53237;46.158;14.604;2022-07-04T03:08:00;3.55;;;2.60;;
66425;SDS011;53237;46.158;14.604;2022-07-04T03:10:26;3.35;;;2.97;;
66425;SDS011;53237;46.158;14.604;2022-07-04T03:12:52;4.75;;;2.60;;
66425;SDS011;53237;46.158;14.604;2022-07-04T03:15:18;3.28;;;2.83;;
66425;SDS011;53237;46.158;14.604;2022-07-04T03:17:44;4.70;;;2.90;;
66425;SDS011;53237;46.158;14.604;2022-07-04T03:20:10;2.88;;;2.67;;
66425;SDS011;53237;46.158;14.604;2022-07-04T03:22:36;4.40;;;3.05;;
66425;SDS011;53237;46.158;14.604;2022-07-04T03:25:02;3.80;;;2.97;;
66425;SDS011;53237;46.158;14.604;2022-07-04T03:27:30;2.90;;;2.70;;
66425;SDS011;53237;46.158;14.604;2022-07-04T03:29:56;4.38;;;2.80;;
66425;SDS011;53237;46.158;14.604;2022-07-04T03:32:22;5.43;;;2.97;;
66425;SDS011;53237;46.158;14.604;2022-07-04T03:34:48;3.70;;;3.28;;
66425;SDS011;53237;46.158;14.604;2022-07-04T03:37:14;3.05;;;2.85;;
66425;SDS011;53237;46.158;14.604;2022-07-04T03:39:39;3.83;;;3.13;;
66425;SDS011;53237;46.158;14.604;2022-07-04T03:42:05;4.95;;;3.60;;
66425;SDS011;53237;46.158;14.604;2022-07-04T03:44:31;3.58;;;2.90;;
66425;SDS011;53237;46.158;14.604;2022-07-04T03:46:57;3.60;;;3.30;;
66425;SDS011;53237;46.158;14.604;2022-07-04T03:49:24;5.05;;;3.00;;
66425;SDS011;53237;46.158;14.604;2022-07-04T03:51:50;4.22;;;3.83;;
66425;SDS011;53237;46.158;14.604;2022-07-04T03:54:16;4.45;;;3.15;;
66425;SDS011;53237;46.158;14.604;2022-07-04T03:56:42;3.78;;;3.38;;
66425;SDS011;53237;46.158;14.604;2022-07-04T03:59:08;3.58;;;3.28;;
66425;SDS011;53237;46.158;14.604;2022-07-04T04:01:34;3.90;;;3.22;;
66425;SDS011;53237;46.158;14.604;2022-07-04T04:04:00;4.53;;;3.20;;
66425;SDS011;53237;46.158;14.604;2022-07-04T04:06:45;3.53;;;2.90;;
66425;SDS011;53237;46.158;14.604;2022-07-04T04:09:11;3.65;;;3.30;;
66425;SDS011;53237;46.158;14.604;2022-07-04T04:11:41;3.38;;;3.00;;
66425;SDS011;53237;46.158;14.604;2022-07-04T04:14:07;4.38;;;3.30;;
66425;SDS011;53237;46.158;14.604;2022-07-04T04:16:33;3.10;;;2.85;;
66425;SDS011;53237;46.158;14.604;2022-07-04T04:18:59;4.15;;;3.45;;
66425;SDS011;53237;46.158;14.604;2022-07-04T04:21:25;4.10;;;3.05;;
66425;SDS011;53237;46.158;14.604;2022-07-04T04:23:51;4.35;;;2.90;;
66425;SDS011;53237;46.158;14.604;2022-07-04T04:26:17;5.10;;;3.28;;
66425;SDS011;53237;46.158;14.604;2022-07-04T04:28:43;3.72;;;3.13;;
66425;SDS011;53237;46.158;14.604;2022-07-04T04:31:09;3.05;;;2.80;;
66425;SDS011;53237;46.158;14.604;2022-07-04T04:33:35;3.60;;;3.30;;
66425;SDS011;53237;46.158;14.604;2022-07-04T04:36:02;3.92;;;2.80;;
66425;SDS011;53237;46.158;14.604;2022-07-04T04:38:28;4.72;;;3.20;;
66425;SDS011;53237;46.158;14.604;2022-07-04T04:40:54;4.30;;;3.65;;
66425;SDS011;53237;46.158;14.604;2022-07-04T04:43:20;4.38;;;3.58;;
66425;SDS011;53237;46.158;14.604;2022-07-04T04:45:46;6.35;;;3.53;;
66425;SDS011;53237;46.158;14.604;2022-07-04T04:48:12;4.35;;;3.33;;
66425;SDS011;53237;46.158;14.604;2022-07-04T04:50:39;3.42;;;3.13;;
66425;SDS011;53237;46.158;14.604;2022-07-04T04:53:05;4.78;;;3.20;;
66425;SDS011;53237;46.158;14.604;2022-07-04T04:55:31;3.25;;;3.00;;
66425;SDS011;53237;46.158;14.604;2022-07-04T04:57:57;3.00;;;2.80;;
66425;SDS011;53237;46.158;14.604;2022-07-04T05:00:23;4.13;;;3.03;;
66425;SDS011;53237;46.158;14.604;2022-07-04T05:02:49;3.40;;;3.10;;
66425;SDS011;53237;46.158;14.604;2022-07-04T05:05:15;3.20;;;2.92;;
66425;SDS011;53237;46.158;14.604;2022-07-04T05:07:41;4.05;;;2.80;;
66425;SDS011;53237;46.158;14.604;2022-07-04T05:10:07;3.78;;;2.90;;
66425;SDS011;53237;46.158;14.604;2022-07-04T05:12:34;4.40;;;4.00;;
66425;SDS011;53237;46.158;14.604;2022-07-04T05:15:00;3.30;;;3.00;;
66425;SDS011;53237;46.158;14.604;2022-07-04T05:17:26;5.25;;;3.97;;
66425;SDS011;53237;46.158;14.604;2022-07-04T05:19:52;8.65;;;5.30;;
66425;SDS011;53237;46.158;14.604;2022-07-04T05:22:18;5.75;;;4.15;;
66425;SDS011;53237;46.158;14.604;2022-07-04T05:24:44;7.47;;;5.20;;
66425;SDS011;53237;46.158;14.604;2022-07-04T05:27:10;5.80;;;4.20;;
66425;SDS011;53237;46.158;14.604;2022-07-04T05:29:36;8.85;;;5.10;;
66425;SDS011;53237;46.158;14.604;2022-07-04T05:32:03;4.95;;;3.15;;
66425;SDS011;53237;46.158;14.604;2022-07-04T05:34:29;3.30;;;3.00;;
66425;SDS011;53237;46.158;14.604;2022-07-04T05:36:55;5.30;;;3.85;;
66425;SDS011;53237;46.158;14.604;2022-07-04T05:39:21;8.07;;;4.97;;
66425;SDS011;53237;46.158;14.604;2022-07-04T05:41:47;8.07;;;4.82;;
66425;SDS011;53237;46.158;14.604;2022-07-04T05:44:13;6.70;;;5.45;;
66425;SDS011;53237;46.158;14.604;2022-07-04T05:46:39;5.45;;;4.38;;
66425;SDS011;53237;46.158;14.604;2022-07-04T05:49:05;4.35;;;3.95;;
66425;SDS011;53237;46.158;14.604;2022-07-04T05:51:31;4.30;;;3.60;;
66425;SDS011;53237;46.158;14.604;2022-07-04T05:53:57;6.63;;;5.75;;
66425;SDS011;53237;46.158;14.604;2022-07-04T05:56:23;6.60;;;3.83;;
66425;SDS011;53237;46.158;14.604;2022-07-04T05:58:49;9.65;;;6.85;;
66425;SDS011;53237;46.158;14.604;2022-07-04T06:01:15;11.88;;;7.20;;
66425;SDS011;53237;46.158;14.604;2022-07-04T06:03:41;4.28;;;3.88;;
66425;SDS011;53237;46.158;14.604;2022-07-04T06:06:07;9.20;;;6.15;;
66425;SDS011;53237;46.158;14.604;2022-07-04T06:08:33;5.28;;;4.38;;
66425;SDS011;53237;46.158;14.604;2022-07-04T06:10:59;4.60;;;4.20;;
66425;SDS011;53237;46.158;14.604;2022-07-04T06:13:25;8.43;;;4.97;;
66425;SDS011;53237;46.158;14.604;2022-07-04T06:15:52;5.30;;;4.18;;
66425;SDS011;53237;46.158;14.604;2022-07-04T06:18:18;5.10;;;4.60;;
66425;SDS011;53237;46.158;14.604;2022-07-04T06:20:44;5.13;;;4.15;;
66425;SDS011;53237;46.158;14.604;2022-07-04T06:23:10;7.32;;;6.43;;
66425;SDS011;53237;46.158;14.604;2022-07-04T06:25:36;6.20;;;4.22;;
66425;SDS011;53237;46.158;14.604;2022-07-04T06:28:02;5.38;;;4.03;;
66425;SDS011;53237;46.158;14.604;2022-07-04T06:30:28;5.68;;;4.80;;
66425;SDS011;53237;46.158;14.604;2022-07-04T06:32:55;5.38;;;4.65;;
66425;SDS011;53237;46.158;14.604;2022-07-04T06:35:40;4.53;;;4.13;;
66425;SDS011;53237;46.158;14.604;2022-07-04T06:38:19;7.53;;;5.28;;
66425;SDS011;53237;46.158;14.604;2022-07-04T06:40:45;6.82;;;5.15;;
66425;SDS011;53237;46.158;14.604;2022-07-04T06:43:12;11.70;;;6.20;;
66425;SDS011;53237;46.158;14.604;2022-07-04T06:45:38;5.45;;;4.57;;
66425;SDS011;53237;46.158;14.604;2022-07-04T06:48:04;6.80;;;5.25;;
66425;SDS011;53237;46.158;14.604;2022-07-04T06:50:31;6.80;;;4.90;;
66425;SDS011;53237;46.158;14.604;2022-07-04T06:53:01;5.72;;;5.05;;
66425;SDS011;53237;46.158;14.604;2022-07-04T06:55:27;6.43;;;4.88;;
66425;SDS011;53237;46.158;14.604;2022-07-04T06:57:53;9.13;;;4.90;;
66425;SDS011;53237;46.158;14.604;2022-07-04T07:00:19;5.30;;;4.32;;
66425;SDS011;53237;46.158;14.604;2022-07-04T07:02:45;6.05;;;4.40;;
66425;SDS011;53237;46.158;14.604;2022-07-04T07:05:11;6.82;;;4.65;;
66425;SDS011;53237;46.158;14.604;2022-07-04T07:07:37;4.10;;;3.80;;
66425;SDS011;53237;46.158;14.604;2022-07-04T07:10:03;6.88;;;4.70;;
66425;SDS011;53237;46.158;14.604;2022-07-04T07:12:31;8.32;;;4.72;;
66425;SDS011;53237;46.158;14.604;2022-07-04T07:14:58;6.38;;;4.53;;
66425;SDS011;53237;46.158;14.604;2022-07-04T07:17:24;5.40;;;4.18;;
66425;SDS011;53237;46.158;14.604;2022-07-04T07:19:50;8.68;;;4.10;;
66425;SDS011;53237;46.158;14.604;2022-07-04T07:22:16;5.30;;;4.13;;
66425;SDS011;53237;46.158;14.604;2022-07-04T07:24:42;8.30;;;4.35;;
66425;SDS011;53237;46.158;14.604;2022-07-04T07:27:08;6.25;;;4.15;;
66425;SDS011;53237;46.158;14.604;2022-07-04T07:29:35;4.13;;;3.72;;
66425;SDS011;53237;46.158;14.604;2022-07-04T07:32:01;8.07;;;4.57;;
66425;SDS011;53237;46.158;14.604;2022-07-04T07:34:27;4.50;;;4.10;;
66425;SDS011;53237;46.158;14.604;2022-07-04T07:36:53;5.15;;;4.03;;
66425;SDS011;53237;46.158;14.604;2022-07-04T07:39:19;9.98;;;4.35;;
66425;SDS011;53237;46.158;14.604;2022-07-04T07:41:46;4.15;;;3.22;;
66425;SDS011;53237;46.158;14.604;2022-07-04T07:44:12;6.25;;;4.15;;
66425;SDS011;53237;46.158;14.604;2022-07-04T07:46:38;6.18;;;3.42;;
66425;SDS011;53237;46.158;14.604;2022-07-04T07:49:06;5.35;;;3.30;;
66425;SDS011;53237;46.158;14.604;2022-07-04T07:51:32;3.97;;;3.17;;
66425;SDS011;53237;46.158;14.604;2022-07-04T07:53:58;3.65;;;3.17;;
66425;SDS011;53237;46.158;14.604;2022-07-04T07:56:24;4.85;;;3.35;;
66425;SDS011;53237;46.158;14.604;2022-07-04T07:58:50;6.03;;;3.65;;
66425;SDS011;53237;46.158;14.604;2022-07-04T08:01:16;5.00;;;3.13;;
66425;SDS011;53237;46.158;14.604;2022-07-04T08:03:42;6.15;;;3.90;;
66425;SDS011;53237;46.158;14.604;2022-07-04T08:06:27;6.10;;;3.70;;
66425;SDS011;53237;46.158;14.604;2022-07-04T08:08:53;6.53;;;3.30;;
66425;SDS011;53237;46.158;14.604;2022-07-04T08:11:19;4.18;;;3.72;;
66425;SDS011;53237;46.158;14.604;2022-07-04T08:13:45;3.78;;;3.08;;
66425;SDS011;53237;46.158;14.604;2022-07-04T08:16:11;8.63;;;3.30;;
66425;SDS011;53237;46.158;14.604;2022-07-04T08:18:37;4.20;;;3.53;;
66425;SDS011;53237;46.158;14.604;2022-07-04T08:21:03;3.80;;;3.15;;
66425;SDS011;53237;46.158;14.604;2022-07-04T08:23:30;3.22;;;2.92;;
66425;SDS011;53237;46.158;14.604;2022-07-04T08:25:57;3.72;;;2.90;;
66425;SDS011;53237;46.158;14.604;2022-07-04T08:28:24;3.97;;;2.85;;
66425;SDS011;53237;46.158;14.604;2022-07-04T08:30:50;4.78;;;2.90;;
66425;SDS011;53237;46.158;14.604;2022-07-04T08:33:16;7.47;;;3.40;;
66425;SDS011;53237;46.158;14.604;2022-07-04T08:35:42;5.25;;;3.10;;
66425;SDS011;53237;46.158;14.604;2022-07-04T08:38:08;3.42;;;2.90;;
66425;SDS011;53237;46.158;14.604;2022-07-04T08:40:34;4.55;;;3.17;;
66425;SDS011;53237;46.158;14.604;2022-07-04T08:43:03;3.20;;;2.90;;
66425;SDS011;53237;46.158;14.604;2022-07-04T08:45:30;5.53;;;3.15;;
66425;SDS011;53237;46.158;14.604;2022-07-04T08:48:02;3.42;;;2.97;;
66425;SDS011;53237;46.158;14.604;2022-07-04T08:50:30;10.75;;;3.25;;
66425;SDS011;53237;46.158;14.604;2022-07-04T08:53:00;3.58;;;2.78;;
66425;SDS011;53237;46.158;14.604;2022-07-04T08:55:26;4.33;;;2.57;;
66425;SDS011;53237;46.158;14.604;2022-07-04T08:58:12;2.88;;;2.63;;
66425;SDS011;53237;46.158;14.604;2022-07-04T09:00:51;6.30;;;2.72;;
66425;SDS011;53237;46.158;14.604;2022-07-04T09:03:17;4.10;;;3.17;;
66425;SDS011;53237;46.158;14.604;2022-07-04T09:05:43;3.38;;;2.80;;
66425;SDS011;53237;46.158;14.604;2022-07-04T09:08:10;7.00;;;3.05;;
66425;SDS011;53237;46.158;14.604;2022-07-04T09:10:36;7.55;;;3.25;;
66425;SDS011;53237;46.158;14.604;2022-07-04T09:13:02;5.68;;;3.42;;
66425;SDS011;53237;46.158;14.604;2022-07-04T09:15:29;4.78;;;3.33;;
66425;SDS011;53237;46.158;14.604;2022-07-04T09:17:55;7.25;;;3.08;;
66425;SDS011;53237;46.158;14.604;2022-07-04T09:20:22;8.75;;;3.38;;
66425;SDS011;53237;46.158;14.604;2022-07-04T09:22:49;4.30;;;2.88;;
66425;SDS011;53237;46.158;14.604;2022-07-04T09:25:15;3.40;;;3.10;;
66425;SDS011;53237;46.158;14.604;2022-07-04T09:27:43;5.22;;;3.17;;
66425;SDS011;53237;46.158;14.604;2022-07-04T09:30:10;3.70;;;3.40;;
66425;SDS011;53237;46.158;14.604;2022-07-04T09:32:40;3.17;;;2.88;;
66425;SDS011;53237;46.158;14.604;2022-07-04T09:35:10;3.97;;;3.17;;
66425;SDS011;53237;46.158;14.604;2022-07-04T09:37:37;5.50;;;3.53;;
66425;SDS011;53237;46.158;14.604;2022-07-04T09:40:04;7.18;;;3.17;;
66425;SDS011;53237;46.158;14.604;2022-07-04T09:42:34;5.43;;;3.15;;
66425;SDS011;53237;46.158;14.604;2022-07-04T09:45:04;5.00;;;2.63;;
66425;SDS011;53237;46.158;14.604;2022-07-04T09:47:31;3.50;;;3.20;;
66425;SDS011;53237;46.158;14.604;2022-07-04T09:52:29;4.32;;;2.72;;
66425;SDS011;53237;46.158;14.604;2022-07-04T09:54:59;5.05;;;2.95;;
66425;SDS011;53237;46.158;14.604;2022-07-04T09:57:26;6.18;;;2.55;;
66425;SDS011;53237;46.158;14.604;2022-07-04T09:59:52;5.45;;;3.30;;
66425;SDS011;53237;46.158;14.604;2022-07-04T10:02:18;6.20;;;3.33;;
66425;SDS011;53237;46.158;14.604;2022-07-04T10:04:48;5.82;;;3.00;;
66425;SDS011;53237;46.158;14.604;2022-07-04T10:07:29;3.05;;;2.53;;
66425;SDS011;53237;46.158;14.604;2022-07-04T10:09:55;4.60;;;3.27;;
66425;SDS011;53237;46.158;14.604;2022-07-04T10:12:27;3.60;;;3.20;;
66425;SDS011;53237;46.158;14.604;2022-07-04T10:14:55;5.97;;;3.65;;
66425;SDS011;53237;46.158;14.604;2022-07-04T10:17:21;4.47;;;3.45;;
66425;SDS011;53237;46.158;14.604;2022-07-04T10:19:47;5.78;;;3.10;;
66425;SDS011;53237;46.158;14.604;2022-07-04T10:22:17;4.18;;;2.80;;
66425;SDS011;53237;46.158;14.604;2022-07-04T10:24:43;4.47;;;2.80;;
66425;SDS011;53237;46.158;14.604;2022-07-04T10:27:10;3.28;;;3.03;;
66425;SDS011;53237;46.158;14.604;2022-07-04T10:29:36;6.05;;;3.13;;
66425;SDS011;53237;46.158;14.604;2022-07-04T10:32:03;6.80;;;3.10;;
66425;SDS011;53237;46.158;14.604;2022-07-04T10:34:32;3.35;;;2.45;;
66425;SDS011;53237;46.158;14.604;2022-07-04T10:37:04;3.58;;;2.80;;
66425;SDS011;53237;46.158;14.604;2022-07-04T10:39:30;5.78;;;3.10;;
66425;SDS011;53237;46.158;14.604;2022-07-04T10:41:56;5.90;;;3.30;;
66425;SDS011;53237;46.158;14.604;2022-07-04T10:44:23;3.83;;;2.95;;
66425;SDS011;53237;46.158;14.604;2022-07-04T10:46:51;3.88;;;3.00;;
66425;SDS011;53237;46.158;14.604;2022-07-04T10:49:22;5.05;;;2.90;;
66425;SDS011;53237;46.158;14.604;2022-07-04T10:56:53;7.43;;;2.97;;
66425;SDS011;53237;46.158;14.604;2022-07-04T10:59:23;5.18;;;3.08;;
66425;SDS011;53237;46.158;14.604;2022-07-04T11:04:51;7.38;;;3.22;;
66425;SDS011;53237;46.158;14.604;2022-07-04T11:07:21;9.43;;;3.05;;
66425;SDS011;53237;46.158;14.604;2022-07-04T11:10:17;4.38;;;2.92;;
66425;SDS011;53237;46.158;14.604;2022-07-04T11:12:33;3.63;;;3.10;;
66425;SDS011;53237;46.158;14.604;2022-07-04T11:15:16;3.92;;;3.08;;
66425;SDS011;53237;46.158;14.604;2022-07-04T11:17:43;3.78;;;3.08;;
66425;SDS011;53237;46.158;14.604;2022-07-04T11:20:09;5.00;;;2.97;;
66425;SDS011;53237;46.158;14.604;2022-07-04T11:22:36;7.85;;;3.30;;
66425;SDS011;53237;46.158;14.604;2022-07-04T11:25:02;4.25;;;2.83;;
66425;SDS011;53237;46.158;14.604;2022-07-04T11:27:28;4.70;;;2.97;;
66425;SDS011;53237;46.158;14.604;2022-07-04T11:29:55;5.28;;;3.17;;
66425;SDS011;53237;46.158;14.604;2022-07-04T11:32:29;4.97;;;2.80;;
66425;SDS011;53237;46.158;14.604;2022-07-04T11:34:55;4.95;;;2.72;;
66425;SDS011;53237;46.158;14.604;2022-07-04T11:37:21;5.80;;;2.75;;
66425;SDS011;53237;46.158;14.604;2022-07-04T11:39:51;3.83;;;2.70;;
66425;SDS011;53237;46.158;14.604;2022-07-04T11:42:17;5.15;;;3.17;;
66425;SDS011;53237;46.158;14.604;2022-07-04T11:45:02;3.03;;;2.58;;
66425;SDS011;53237;46.158;14.604;2022-07-04T11:49:55;6.60;;;2.63;;
66425;SDS011;53237;46.158;14.604;2022-07-04T11:52:25;4.57;;;2.67;;
66425;SDS011;53237;46.158;14.604;2022-07-04T11:54:52;4.38;;;2.75;;
66425;SDS011;53237;46.158;14.604;2022-07-04T11:59:51;3.53;;;2.65;;
66425;SDS011;53237;46.158;14.604;2022-07-04T12:02:17;4.78;;;3.08;;
66425;SDS011;53237;46.158;14.604;2022-07-04T12:04:43;5.35;;;2.97;;
66425;SDS011;53237;46.158;14.604;2022-07-04T12:07:10;4.13;;;3.10;;
66425;SDS011;53237;46.158;14.604;2022-07-04T12:09:37;8.20;;;3.58;;
66425;SDS011;53237;46.158;14.604;2022-07-04T12:12:03;4.35;;;2.80;;
66425;SDS011;53237;46.158;14.604;2022-07-04T12:14:29;4.63;;;2.80;;
66425;SDS011;53237;46.158;14.604;2022-07-04T12:17:14;8.38;;;3.53;;
66425;SDS011;53237;46.158;14.604;2022-07-04T12:19:54;6.90;;;3.30;;
66425;SDS011;53237;46.158;14.604;2022-07-04T12:22:27;3.55;;;2.80;;
66425;SDS011;53237;46.158;14.604;2022-07-04T12:24:54;3.45;;;3.00;;
66425;SDS011;53237;46.158;14.604;2022-07-04T12:27:20;6.05;;;3.20;;
66425;SDS011;53237;46.158;14.604;2022-07-04T12:29:49;6.03;;;2.60;;
66425;SDS011;53237;46.158;14.604;2022-07-04T12:32:16;3.30;;;3.00;;
66425;SDS011;53237;46.158;14.604;2022-07-04T12:34:43;3.85;;;3.45;;
66425;SDS011;53237;46.158;14.604;2022-07-04T12:37:10;5.90;;;3.20;;
66425;SDS011;53237;46.158;14.604;2022-07-04T12:39:37;4.93;;;3.53;;
66425;SDS011;53237;46.158;14.604;2022-07-04T12:42:08;6.05;;;2.83;;
66425;SDS011;53237;46.158;14.604;2022-07-04T12:44:35;6.50;;;3.97;;
66425;SDS011;53237;46.158;14.604;2022-07-04T12:47:02;5.07;;;3.80;;
66425;SDS011;53237;46.158;14.604;2022-07-04T12:49:28;5.38;;;3.70;;
66425;SDS011;53237;46.158;14.604;2022-07-04T12:52:04;3.83;;;3.30;;
66425;SDS011;53237;46.158;14.604;2022-07-04T12:54:30;3.58;;;3.00;;
66425;SDS011;53237;46.158;14.604;2022-07-04T12:57:03;3.53;;;3.25;;
66425;SDS011;53237;46.158;14.604;2022-07-04T12:59:30;6.30;;;3.35;;
66425;SDS011;53237;46.158;14.604;2022-07-04T13:01:56;7.10;;;3.92;;
66425;SDS011;53237;46.158;14.604;2022-07-04T13:04:22;7.70;;;3.92;;
66425;SDS011;53237;46.158;14.604;2022-07-04T13:06:48;4.13;;;3.15;;
66425;SDS011;53237;46.158;14.604;2022-07-04T13:09:14;6.00;;;3.20;;
66425;SDS011;53237;46.158;14.604;2022-07-04T13:11:40;7.20;;;4.05;;
66425;SDS011;53237;46.158;14.604;2022-07-04T13:14:25;4.15;;;3.58;;
66425;SDS011;53237;46.158;14.604;2022-07-04T13:16:51;4.82;;;3.90;;
66425;SDS011;53237;46.158;14.604;2022-07-04T13:19:17;6.55;;;3.30;;
66425;SDS011;53237;46.158;14.604;2022-07-04T13:21:43;6.65;;;3.92;;
66425;SDS011;53237;46.158;14.604;2022-07-04T13:24:09;4.93;;;3.50;;
66425;SDS011;53237;46.158;14.604;2022-07-04T13:26:35;4.68;;;3.47;;
66425;SDS011;53237;46.158;14.604;2022-07-04T13:29:03;8.63;;;3.97;;
66425;SDS011;53237;46.158;14.604;2022-07-04T13:31:29;5.88;;;3.78;;
66425;SDS011;53237;46.158;14.604;2022-07-04T13:33:55;10.00;;;3.88;;
66425;SDS011;53237;46.158;14.604;2022-07-04T13:36:21;4.93;;;3.58;;
66425;SDS011;53237;46.158;14.604;2022-07-04T13:38:47;7.28;;;3.72;;
66425;SDS011;53237;46.158;14.604;2022-07-04T13:41:13;4.43;;;3.63;;
66425;SDS011;53237;46.158;14.604;2022-07-04T13:43:39;7.82;;;4.13;;
66425;SDS011;53237;46.158;14.604;2022-07-04T13:46:06;5.47;;;3.75;;
66425;SDS011;53237;46.158;14.604;2022-07-04T13:48:32;5.18;;;3.67;;
66425;SDS011;53237;46.158;14.604;2022-07-04T13:50:58;4.57;;;3.55;;
66425;SDS011;53237;46.158;14.604;2022-07-04T13:53:24;5.25;;;3.80;;
66425;SDS011;53237;46.158;14.604;2022-07-04T13:55:50;7.20;;;3.55;;
66425;SDS011;53237;46.158;14.604;2022-07-04T13:58:16;3.78;;;3.47;;
66425;SDS011;53237;46.158;14.604;2022-07-04T14:00:42;5.93;;;3.28;;
66425;SDS011;53237;46.158;14.604;2022-07-04T14:03:10;5.68;;;3.75;;
66425;SDS011;53237;46.158;14.604;2022-07-04T14:05:36;4.90;;;3.80;;
66425;SDS011;53237;46.158;14.604;2022-07-04T14:08:02;7.18;;;3.58;;
66425;SDS011;53237;46.158;14.604;2022-07-04T14:10:28;5.10;;;4.00;;
66425;SDS011;53237;46.158;14.604;2022-07-04T14:12:54;5.40;;;3.72;;
66425;SDS011;53237;46.158;14.604;2022-07-04T14:15:20;5.57;;;3.65;;
66425;SDS011;53237;46.158;14.604;2022-07-04T14:17:47;6.90;;;3.88;;
66425;SDS011;53237;46.158;14.604;2022-07-04T14:20:13;5.45;;;4.03;;
66425;SDS011;53237;46.158;14.604;2022-07-04T14:22:39;7.53;;;4.32;;
66425;SDS011;53237;46.158;14.604;2022-07-04T14:25:05;10.45;;;5.40;;
66425;SDS011;53237;46.158;14.604;2022-07-04T14:27:32;6.70;;;4.95;;
66425;SDS011;53237;46.158;14.604;2022-07-04T14:29:58;6.35;;;4.40;;
66425;SDS011;53237;46.158;14.604;2022-07-04T14:32:24;8.68;;;4.93;;
66425;SDS011;53237;46.158;14.604;2022-07-04T14:34:51;9.07;;;4.55;;
66425;SDS011;53237;46.158;14.604;2022-07-04T14:37:17;5.28;;;3.92;;
66425;SDS011;53237;46.158;14.604;2022-07-04T14:39:43;7.50;;;4.40;;
66425;SDS011;53237;46.158;14.604;2022-07-04T14:42:09;6.80;;;4.47;;
66425;SDS011;53237;46.158;14.604;2022-07-04T14:44:35;6.00;;;4.00;;
66425;SDS011;53237;46.158;14.604;2022-07-04T14:47:03;4.20;;;3.90;;
66425;SDS011;53237;46.158;14.604;2022-07-04T14:49:29;5.65;;;4.53;;